sensor_id;sensor_type;location;lat;lon;timestamp;pressure;altitude;pressure_sealevel;temperature;humidity
30819;BME280;17546;42.674;23.284;2024-02-04T00:00:10;95112.97;;;13.01;39.49
30819;BME280;17546;42.674;23.284;2024-02-04T00:02:36;95129.16;;;12.97;39.80
30819;BME280;17546;42.674;23.284;2024-02-04T00:05:03;95138.06;;;13.30;39.62
30819;BME280;17546;42.674;23.284;2024-02-04T00:07:28;95154.19;;;13.20;39.96
30819;BME280;17546;42.674;23.284;2024-02-04T00:09:54;95135.72;;;13.22;39.76
30819;BME280;17546;42.674;23.284;2024-02-04T00:12:20;95128.97;;;13.40;39.21
30819;BME280;17546;42.674;23.284;2024-02-04T00:14:46;95097.28;;;12.98;39.59
30819;BME280;17546;42.674;23.284;2024-02-04T00:17:14;95141.84;;;13.55;39.30
30819;BME280;17546;42.674;23.284;2024-02-04T00:19:40;95147.91;;;13.70;39.11
30819;BME280;17546;42.674;23.284;2024-02-04T00:22:05;95165.88;;;13.63;39.41
30819;BME280;17546;42.674;23.284;2024-02-04T00:24:32;95162.84;;;13.50;39.65
30819;BME280;17546;42.674;23.284;2024-02-04T00:26:58;95148.41;;;13.69;39.28
30819;BME280;17546;42.674;23.284;2024-02-04T00:29:23;95116.56;;;13.53;39.11
30819;BME280;17546;42.674;23.284;2024-02-04T00:31:48;95116.28;;;13.17;40.09
30819;BME280;17546;42.674;23.284;2024-02-04T00:34:14;95135.78;;;13.28;39.88
30819;BME280;17546;42.674;23.284;2024-02-04T00:36:39;95146.34;;;13.07;40.57
30819;BME280;17546;42.674;23.284;2024-02-04T00:39:05;95123.28;;;12.73;40.96
30819;BME280;17546;42.674;23.284;2024-02-04T00:41:32;95112.50;;;13.31;39.60
30819;BME280;17546;42.674;23.284;2024-02-04T00:43:58;95116.75;;;12.93;40.61
30819;BME280;17546;42.674;23.284;2024-02-04T00:46:23;95140.06;;;13.29;40.36
30819;BME280;17546;42.674;23.284;2024-02-04T00:48:49;95102.81;;;12.87;40.89
30819;BME280;17546;42.674;23.284;2024-02-04T00:51:15;95138.78;;;13.19;40.68
30819;BME280;17546;42.674;23.284;2024-02-04T00:53:43;95144.88;;;13.29;40.71
30819;BME280;17546;42.674;23.284;2024-02-04T00:56:08;95105.59;;;12.87;41.07
30819;BME280;17546;42.674;23.284;2024-02-04T00:58:35;95131.25;;;13.48;40.03
30819;BME280;17546;42.674;23.284;2024-02-04T01:01:01;95140.31;;;13.59;40.02
30819;BME280;17546;42.674;23.284;2024-02-04T01:03:28;95134.75;;;13.42;40.31
30819;BME280;17546;42.674;23.284;2024-02-04T01:05:53;95138.31;;;13.49;40.27
30819;BME280;17546;42.674;23.284;2024-02-04T01:08:19;95101.13;;;13.29;40.72
30819;BME280;17546;42.674;23.284;2024-02-04T01:10:44;95112.00;;;13.50;40.54
30819;BME280;17546;42.674;23.284;2024-02-04T01:13:10;95133.72;;;13.85;40.15
30819;BME280;17546;42.674;23.284;2024-02-04T01:15:35;95099.88;;;13.41;40.63
30819;BME280;17546;42.674;23.284;2024-02-04T01:18:01;95132.22;;;13.78;40.47
30819;BME280;17546;42.674;23.284;2024-02-04T01:20:26;95111.94;;;13.83;40.17
30819;BME280;17546;42.674;23.284;2024-02-04T01:22:52;95099.09;;;13.63;40.39
30819;BME280;17546;42.674;23.284;2024-02-04T01:25:17;95125.38;;;13.68;40.81
30819;BME280;17546;42.674;23.284;2024-02-04T01:27:43;95097.31;;;13.66;40.70
30819;BME280;17546;42.674;23.284;2024-02-04T01:30:09;95119.09;;;13.39;41.50
30819;BME280;17546;42.674;23.284;2024-02-04T01:32:34;95113.00;;;13.58;40.99
30819;BME280;17546;42.674;23.284;2024-02-04T01:35:00;95088.97;;;13.55;40.96
30819;BME280;17546;42.674;23.284;2024-02-04T01:37:25;95076.59;;;13.39;41.16
30819;BME280;17546;42.674;23.284;2024-02-04T01:39:51;95088.94;;;13.83;40.54
30819;BME280;17546;42.674;23.284;2024-02-04T01:42:16;95122.63;;;13.34;41.93
30819;BME280;17546;42.674;23.284;2024-02-04T01:44:42;95103.41;;;13.31;41.90
30819;BME280;17546;42.674;23.284;2024-02-04T01:47:08;95093.00;;;13.59;41.43
30819;BME280;17546;42.674;23.284;2024-02-04T01:49:34;95094.78;;;13.12;42.57
30819;BME280;17546;42.674;23.284;2024-02-04T01:52:02;95106.19;;;13.42;42.08
30819;BME280;17546;42.674;23.284;2024-02-04T01:54:30;95070.75;;;12.97;42.70
30819;BME280;17546;42.674;23.284;2024-02-04T01:56:58;95104.38;;;13.56;41.96
30819;BME280;17546;42.674;23.284;2024-02-04T01:59:24;95120.84;;;13.14;43.00
30819;BME280;17546;42.674;23.284;2024-02-04T02:01:56;95114.00;;;13.66;41.81
30819;BME280;17546;42.674;23.284;2024-02-04T02:04:22;95107.94;;;13.17;42.76
30819;BME280;17546;42.674;23.284;2024-02-04T02:06:48;95108.69;;;13.06;43.01
30819;BME280;17546;42.674;23.284;2024-02-04T02:09:13;95119.31;;;13.24;42.82
30819;BME280;17546;42.674;23.284;2024-02-04T02:11:54;95080.88;;;13.29;42.44
30819;BME280;17546;42.674;23.284;2024-02-04T02:14:36;95102.34;;;13.84;41.43
30819;BME280;17546;42.674;23.284;2024-02-04T02:17:18;95108.94;;;13.53;41.97
30819;BME280;17546;42.674;23.284;2024-02-04T02:20:11;95106.94;;;13.37;42.17
30819;BME280;17546;42.674;23.284;2024-02-04T02:22:49;95111.22;;;13.72;41.57
30819;BME280;17546;42.674;23.284;2024-02-04T02:25:18;95053.81;;;13.52;41.56
30819;BME280;17546;42.674;23.284;2024-02-04T02:27:49;95096.03;;;13.73;41.55
30819;BME280;17546;42.674;23.284;2024-02-04T02:30:16;95058.84;;;13.59;41.55
30819;BME280;17546;42.674;23.284;2024-02-04T02:32:43;95093.75;;;13.71;41.67
30819;BME280;17546;42.674;23.284;2024-02-04T02:35:09;95075.31;;;13.46;41.87
30819;BME280;17546;42.674;23.284;2024-02-04T02:42:50;95085.41;;;13.66;41.42
30819;BME280;17546;42.674;23.284;2024-02-04T02:45:19;95078.56;;;13.27;42.04
30819;BME280;17546;42.674;23.284;2024-02-04T02:47:47;95089.72;;;13.55;41.83
30819;BME280;17546;42.674;23.284;2024-02-04T02:50:13;95090.25;;;13.54;41.73
30819;BME280;17546;42.674;23.284;2024-02-04T02:52:39;95066.19;;;13.62;41.15
30819;BME280;17546;42.674;23.284;2024-02-04T02:55:05;95082.38;;;13.69;41.28
30819;BME280;17546;42.674;23.284;2024-02-04T02:57:30;95086.41;;;13.74;41.18
30819;BME280;17546;42.674;23.284;2024-02-04T02:59:56;95055.28;;;13.64;40.98
30819;BME280;17546;42.674;23.284;2024-02-04T03:02:21;95038.63;;;13.41;41.13
30819;BME280;17546;42.674;23.284;2024-02-04T03:04:47;95046.22;;;13.13;42.12
30819;BME280;17546;42.674;23.284;2024-02-04T03:07:12;95067.50;;;13.38;41.94
30819;BME280;17546;42.674;23.284;2024-02-04T03:09:37;95035.84;;;13.53;41.12
30819;BME280;17546;42.674;23.284;2024-02-04T03:12:03;95062.13;;;13.74;41.08
30819;BME280;17546;42.674;23.284;2024-02-04T03:14:30;95059.09;;;13.61;41.15
30819;BME280;17546;42.674;23.284;2024-02-04T03:16:56;95031.06;;;13.48;41.82
30819;BME280;17546;42.674;23.284;2024-02-04T03:19:21;95025.69;;;13.55;41.13
30819;BME280;17546;42.674;23.284;2024-02-04T03:21:47;95061.09;;;13.77;41.36
30819;BME280;17546;42.674;23.284;2024-02-04T03:24:13;95016.34;;;13.53;41.50
30819;BME280;17546;42.674;23.284;2024-02-04T03:26:38;95057.34;;;13.47;41.96
30819;BME280;17546;42.674;23.284;2024-02-04T03:29:04;95060.16;;;13.35;42.27
30819;BME280;17546;42.674;23.284;2024-02-04T03:31:31;95035.09;;;13.24;42.19
30819;BME280;17546;42.674;23.284;2024-02-04T03:33:56;95069.25;;;13.58;41.79
30819;BME280;17546;42.674;23.284;2024-02-04T03:36:23;95040.94;;;13.43;41.78
30819;BME280;17546;42.674;23.284;2024-02-04T03:38:52;95025.72;;;13.44;41.76
30819;BME280;17546;42.674;23.284;2024-02-04T03:41:18;95053.75;;;13.69;41.69
30819;BME280;17546;42.674;23.284;2024-02-04T03:43:43;95018.41;;;13.41;41.45
30819;BME280;17546;42.674;23.284;2024-02-04T03:46:13;95034.25;;;13.80;41.25
30819;BME280;17546;42.674;23.284;2024-02-04T03:48:38;95026.66;;;13.75;41.32
30819;BME280;17546;42.674;23.284;2024-02-04T03:51:04;95044.22;;;13.41;42.26
30819;BME280;17546;42.674;23.284;2024-02-04T03:53:29;95043.38;;;13.80;41.11
30819;BME280;17546;42.674;23.284;2024-02-04T03:55:55;95053.84;;;13.40;42.45
30819;BME280;17546;42.674;23.284;2024-02-04T03:58:20;95046.50;;;13.03;43.25
30819;BME280;17546;42.674;23.284;2024-02-04T04:00:54;95058.09;;;13.53;42.41
30819;BME280;17546;42.674;23.284;2024-02-04T04:03:20;95032.31;;;13.41;42.36
30819;BME280;17546;42.674;23.284;2024-02-04T04:05:45;95060.91;;;13.36;43.09
30819;BME280;17546;42.674;23.284;2024-02-04T04:08:11;95041.41;;;13.53;42.74
30819;BME280;17546;42.674;23.284;2024-02-04T04:10:36;95031.06;;;13.36;42.61
30819;BME280;17546;42.674;23.284;2024-02-04T04:13:02;95017.91;;;13.26;42.92
30819;BME280;17546;42.674;23.284;2024-02-04T04:15:27;95057.78;;;13.73;42.16
30819;BME280;17546;42.674;23.284;2024-02-04T04:17:53;95028.44;;;13.72;41.92
30819;BME280;17546;42.674;23.284;2024-02-04T04:20:18;95039.34;;;13.76;41.74
30819;BME280;17546;42.674;23.284;2024-02-04T04:22:52;95050.13;;;14.02;41.54
30819;BME280;17546;42.674;23.284;2024-02-04T04:25:17;95038.88;;;13.55;42.76
30819;BME280;17546;42.674;23.284;2024-02-04T04:27:44;95019.34;;;13.66;41.90
30819;BME280;17546;42.674;23.284;2024-02-04T04:30:10;95059.50;;;13.93;41.54
30819;BME280;17546;42.674;23.284;2024-02-04T04:32:35;95015.59;;;13.47;42.38
30819;BME280;17546;42.674;23.284;2024-02-04T04:35:01;95060.56;;;13.84;42.37
30819;BME280;17546;42.674;23.284;2024-02-04T04:37:26;95033.78;;;13.76;42.16
30819;BME280;17546;42.674;23.284;2024-02-04T04:39:52;95048.91;;;13.86;42.15
30819;BME280;17546;42.674;23.284;2024-02-04T04:42:17;95020.88;;;13.67;41.97
30819;BME280;17546;42.674;23.284;2024-02-04T04:44:43;95034.44;;;13.99;42.01
30819;BME280;17546;42.674;23.284;2024-02-04T04:47:08;95055.81;;;14.32;41.69
30819;BME280;17546;42.674;23.284;2024-02-04T04:49:34;95048.03;;;14.19;41.56
30819;BME280;17546;42.674;23.284;2024-02-04T04:51:59;95060.75;;;14.09;42.11
30819;BME280;17546;42.674;23.284;2024-02-04T04:54:25;95026.59;;;13.97;41.83
30819;BME280;17546;42.674;23.284;2024-02-04T04:56:50;95056.75;;;13.88;41.99
30819;BME280;17546;42.674;23.284;2024-02-04T04:59:16;95019.53;;;13.91;41.60
30819;BME280;17546;42.674;23.284;2024-02-04T05:01:48;95056.69;;;14.10;41.95
30819;BME280;17546;42.674;23.284;2024-02-04T05:04:15;95011.56;;;14.17;41.24
30819;BME280;17546;42.674;23.284;2024-02-04T05:06:41;95044.59;;;14.49;41.08
30819;BME280;17546;42.674;23.284;2024-02-04T05:09:06;95054.56;;;14.27;41.52
30819;BME280;17546;42.674;23.284;2024-02-04T05:11:32;95050.69;;;14.47;41.22
30819;BME280;17546;42.674;23.284;2024-02-04T05:13:57;95042.81;;;14.46;41.20
30819;BME280;17546;42.674;23.284;2024-02-04T05:16:23;95023.78;;;14.03;41.49
30819;BME280;17546;42.674;23.284;2024-02-04T05:18:48;95055.47;;;13.94;42.13
30819;BME280;17546;42.674;23.284;2024-02-04T05:21:14;95038.50;;;13.98;41.92
30819;BME280;17546;42.674;23.284;2024-02-04T05:23:39;95056.75;;;13.88;42.11
30819;BME280;17546;42.674;23.284;2024-02-04T05:26:05;95035.50;;;13.84;41.98
30819;BME280;17546;42.674;23.284;2024-02-04T05:28:31;95053.94;;;13.93;41.67
30819;BME280;17546;42.674;23.284;2024-02-04T05:30:57;95063.50;;;14.15;41.51
30819;BME280;17546;42.674;23.284;2024-02-04T05:33:23;95036.25;;;13.85;41.79
30819;BME280;17546;42.674;23.284;2024-02-04T05:35:48;95029.38;;;14.03;41.33
30819;BME280;17546;42.674;23.284;2024-02-04T05:38:15;95056.13;;;14.17;41.26
30819;BME280;17546;42.674;23.284;2024-02-04T05:40:41;95052.69;;;13.89;41.46
30819;BME280;17546;42.674;23.284;2024-02-04T05:43:06;94996.78;;;13.75;41.31
30819;BME280;17546;42.674;23.284;2024-02-04T05:45:33;95067.66;;;14.55;40.40
30819;BME280;17546;42.674;23.284;2024-02-04T05:47:59;95024.38;;;13.73;41.20
30819;BME280;17546;42.674;23.284;2024-02-04T05:50:24;95071.63;;;14.07;41.02
30819;BME280;17546;42.674;23.284;2024-02-04T05:52:50;95030.81;;;14.15;40.50
30819;BME280;17546;42.674;23.284;2024-02-04T05:55:15;95043.91;;;14.32;39.85
30819;BME280;17546;42.674;23.284;2024-02-04T05:57:41;95036.69;;;14.06;40.38
30819;BME280;17546;42.674;23.284;2024-02-04T06:00:07;95042.50;;;14.08;40.50
30819;BME280;17546;42.674;23.284;2024-02-04T06:02:35;95049.38;;;14.01;40.84
30819;BME280;17546;42.674;23.284;2024-02-04T06:05:01;95069.31;;;14.22;40.83
30819;BME280;17546;42.674;23.284;2024-02-04T06:07:26;95040.31;;;13.90;40.72
30819;BME280;17546;42.674;23.284;2024-02-04T06:09:52;95067.31;;;14.06;40.67
30819;BME280;17546;42.674;23.284;2024-02-04T06:12:17;95095.94;;;14.06;41.03
30819;BME280;17546;42.674;23.284;2024-02-04T06:14:43;95040.63;;;13.69;41.36
30819;BME280;17546;42.674;23.284;2024-02-04T06:17:08;95064.03;;;14.02;40.87
30819;BME280;17546;42.674;23.284;2024-02-04T06:19:35;95042.94;;;13.14;42.35
30819;BME280;17546;42.674;23.284;2024-02-04T06:22:01;95094.53;;;13.43;42.46
30819;BME280;17546;42.674;23.284;2024-02-04T06:24:26;95088.69;;;14.45;40.48
30819;BME280;17546;42.674;23.284;2024-02-04T06:26:52;95098.16;;;14.25;40.75
30819;BME280;17546;42.674;23.284;2024-02-04T06:29:17;95073.44;;;13.99;40.93
30819;BME280;17546;42.674;23.284;2024-02-04T06:31:46;95106.22;;;14.29;40.71
30819;BME280;17546;42.674;23.284;2024-02-04T06:34:12;95067.94;;;13.76;41.31
30819;BME280;17546;42.674;23.284;2024-02-04T06:36:37;95064.88;;;13.85;41.20
30819;BME280;17546;42.674;23.284;2024-02-04T06:39:03;95123.41;;;14.55;40.25
30819;BME280;17546;42.674;23.284;2024-02-04T06:41:28;95113.09;;;14.22;40.82
30819;BME280;17546;42.674;23.284;2024-02-04T06:43:54;95124.22;;;14.33;40.69
30819;BME280;17546;42.674;23.284;2024-02-04T06:46:27;95090.94;;;13.94;41.04
30819;BME280;17546;42.674;23.284;2024-02-04T06:48:53;95101.84;;;13.75;41.32
30819;BME280;17546;42.674;23.284;2024-02-04T06:51:19;95066.97;;;13.57;41.59
30819;BME280;17546;42.674;23.284;2024-02-04T06:53:45;95068.44;;;13.80;41.33
30819;BME280;17546;42.674;23.284;2024-02-04T06:56:11;95125.13;;;14.53;40.35
30819;BME280;17546;42.674;23.284;2024-02-04T06:58:40;95075.75;;;13.78;40.91
30819;BME280;17546;42.674;23.284;2024-02-04T07:01:06;95116.25;;;13.90;41.50
30819;BME280;17546;42.674;23.284;2024-02-04T07:03:31;95119.34;;;14.45;40.54
30819;BME280;17546;42.674;23.284;2024-02-04T07:05:58;95120.94;;;14.29;40.53
30819;BME280;17546;42.674;23.284;2024-02-04T07:08:24;95087.44;;;13.42;41.91
30819;BME280;17546;42.674;23.284;2024-02-04T07:10:50;95109.59;;;14.10;40.91
30819;BME280;17546;42.674;23.284;2024-02-04T07:13:16;95133.47;;;14.70;40.21
30819;BME280;17546;42.674;23.284;2024-02-04T07:15:41;95124.94;;;14.45;40.76
30819;BME280;17546;42.674;23.284;2024-02-04T07:18:07;95089.69;;;14.47;40.10
30819;BME280;17546;42.674;23.284;2024-02-04T07:20:33;95089.59;;;14.06;40.96
30819;BME280;17546;42.674;23.284;2024-02-04T07:22:58;95124.56;;;14.07;41.67
30819;BME280;17546;42.674;23.284;2024-02-04T07:25:23;95081.19;;;14.23;40.84
30819;BME280;17546;42.674;23.284;2024-02-04T07:27:49;95130.59;;;14.22;41.25
30819;BME280;17546;42.674;23.284;2024-02-04T07:30:15;95126.78;;;14.31;41.31
30819;BME280;17546;42.674;23.284;2024-02-04T07:32:40;95123.00;;;14.17;41.21
30819;BME280;17546;42.674;23.284;2024-02-04T07:35:06;95081.41;;;14.36;40.45
30819;BME280;17546;42.674;23.284;2024-02-04T07:37:34;95116.56;;;14.45;40.39
30819;BME280;17546;42.674;23.284;2024-02-04T07:40:00;95091.00;;;14.41;40.13
30819;BME280;17546;42.674;23.284;2024-02-04T07:42:26;95120.72;;;14.21;40.74
30819;BME280;17546;42.674;23.284;2024-02-04T07:44:51;95115.50;;;14.59;39.86
30819;BME280;17546;42.674;23.284;2024-02-04T07:47:17;95132.00;;;14.46;40.24
30819;BME280;17546;42.674;23.284;2024-02-04T07:49:42;95126.50;;;14.35;40.48
30819;BME280;17546;42.674;23.284;2024-02-04T07:52:07;95125.69;;;14.51;40.14
30819;BME280;17546;42.674;23.284;2024-02-04T07:54:33;95114.78;;;14.53;40.14
30819;BME280;17546;42.674;23.284;2024-02-04T07:56:59;95083.84;;;13.87;40.61
30819;BME280;17546;42.674;23.284;2024-02-04T07:59:25;95129.97;;;14.52;39.80
30819;BME280;17546;42.674;23.284;2024-02-04T08:01:50;95124.78;;;14.20;40.41
30819;BME280;17546;42.674;23.284;2024-02-04T08:04:16;95100.00;;;14.11;40.33
30819;BME280;17546;42.674;23.284;2024-02-04T08:06:41;95097.56;;;14.49;39.63
30819;BME280;17546;42.674;23.284;2024-02-04T08:09:07;95091.09;;;14.18;39.73
30819;BME280;17546;42.674;23.284;2024-02-04T08:11:32;95096.03;;;14.48;39.06
30819;BME280;17546;42.674;23.284;2024-02-04T08:13:58;95110.34;;;14.80;39.50
30819;BME280;17546;42.674;23.284;2024-02-04T08:16:23;95121.56;;;14.63;39.32
30819;BME280;17546;42.674;23.284;2024-02-04T08:18:49;95087.47;;;14.40;39.61
30819;BME280;17546;42.674;23.284;2024-02-04T08:21:15;95084.09;;;14.53;39.11
30819;BME280;17546;42.674;23.284;2024-02-04T08:23:40;95084.03;;;14.06;40.20
30819;BME280;17546;42.674;23.284;2024-02-04T08:26:06;95089.50;;;14.40;39.36
30819;BME280;17546;42.674;23.284;2024-02-04T08:28:31;95070.25;;;14.31;39.68
30819;BME280;17546;42.674;23.284;2024-02-04T08:30:57;95081.22;;;14.70;38.99
30819;BME280;17546;42.674;23.284;2024-02-04T08:33:22;95081.22;;;14.76;39.20
30819;BME280;17546;42.674;23.284;2024-02-04T08:35:48;95098.22;;;14.72;39.11
30819;BME280;17546;42.674;23.284;2024-02-04T08:38:14;95070.94;;;14.48;38.76
30819;BME280;17546;42.674;23.284;2024-02-04T08:40:39;95104.38;;;14.54;39.00
30819;BME280;17546;42.674;23.284;2024-02-04T08:43:05;95075.38;;;14.79;38.05
30819;BME280;17546;42.674;23.284;2024-02-04T08:45:31;95119.47;;;15.17;37.68
30819;BME280;17546;42.674;23.284;2024-02-04T08:47:56;95102.47;;;14.79;38.85
30819;BME280;17546;42.674;23.284;2024-02-04T08:50:22;95095.91;;;14.76;38.65
30819;BME280;17546;42.674;23.284;2024-02-04T08:52:47;95121.06;;;14.71;38.74
30819;BME280;17546;42.674;23.284;2024-02-04T08:55:13;95130.63;;;14.81;38.97
30819;BME280;17546;42.674;23.284;2024-02-04T08:57:39;95141.00;;;14.86;38.89
30819;BME280;17546;42.674;23.284;2024-02-04T09:00:05;95120.59;;;14.50;39.50
30819;BME280;17546;42.674;23.284;2024-02-04T09:02:34;95092.78;;;14.33;39.08
30819;BME280;17546;42.674;23.284;2024-02-04T09:05:00;95122.03;;;14.73;38.70
30819;BME280;17546;42.674;23.284;2024-02-04T09:07:26;95156.25;;;14.74;39.12
30819;BME280;17546;42.674;23.284;2024-02-04T09:09:51;95161.91;;;14.62;39.41
30819;BME280;17546;42.674;23.284;2024-02-04T09:12:17;95161.97;;;14.29;40.31
30819;BME280;17546;42.674;23.284;2024-02-04T09:14:43;95122.63;;;14.60;39.12
30819;BME280;17546;42.674;23.284;2024-02-04T09:17:09;95128.97;;;14.55;39.17
30819;BME280;17546;42.674;23.284;2024-02-04T09:19:35;95132.03;;;14.57;39.12
30819;BME280;17546;42.674;23.284;2024-02-04T09:22:01;95159.00;;;14.85;38.84
30819;BME280;17546;42.674;23.284;2024-02-04T09:24:27;95157.25;;;14.82;39.09
30819;BME280;17546;42.674;23.284;2024-02-04T09:26:53;95171.69;;;14.80;39.28
30819;BME280;17546;42.674;23.284;2024-02-04T09:29:19;95195.84;;;14.66;39.76
30819;BME280;17546;42.674;23.284;2024-02-04T09:31:45;95186.63;;;14.83;39.13
30819;BME280;17546;42.674;23.284;2024-02-04T09:34:11;95179.59;;;14.71;39.56
30819;BME280;17546;42.674;23.284;2024-02-04T09:36:36;95186.75;;;15.07;39.12
30819;BME280;17546;42.674;23.284;2024-02-04T09:39:02;95183.78;;;14.94;39.54
30819;BME280;17546;42.674;23.284;2024-02-04T09:41:27;95134.78;;;15.04;39.07
30819;BME280;17546;42.674;23.284;2024-02-04T09:43:54;95185.25;;;14.37;40.86
30819;BME280;17546;42.674;23.284;2024-02-04T09:46:20;95175.41;;;14.30;40.80
30819;BME280;17546;42.674;23.284;2024-02-04T09:48:45;95138.78;;;14.73;39.74
30819;BME280;17546;42.674;23.284;2024-02-04T09:51:12;95185.56;;;14.97;40.00
30819;BME280;17546;42.674;23.284;2024-02-04T09:53:45;95145.22;;;14.98;39.60
30819;BME280;17546;42.674;23.284;2024-02-04T09:56:11;95171.31;;;15.01;39.91
30819;BME280;17546;42.674;23.284;2024-02-04T09:58:38;95138.50;;;14.77;39.72
30819;BME280;17546;42.674;23.284;2024-02-04T10:01:06;95154.41;;;15.29;39.48
30819;BME280;17546;42.674;23.284;2024-02-04T10:03:35;95115.34;;;14.93;39.63
30819;BME280;17546;42.674;23.284;2024-02-04T10:06:01;95111.34;;;15.19;39.40
30819;BME280;17546;42.674;23.284;2024-02-04T10:08:26;95168.78;;;15.44;39.24
30819;BME280;17546;42.674;23.284;2024-02-04T10:10:52;95169.56;;;15.39;39.81
30819;BME280;17546;42.674;23.284;2024-02-04T10:13:19;95157.03;;;15.16;40.40
30819;BME280;17546;42.674;23.284;2024-02-04T10:15:47;95179.69;;;14.37;42.18
30819;BME280;17546;42.674;23.284;2024-02-04T10:18:12;95117.38;;;14.29;42.33
30819;BME280;17546;42.674;23.284;2024-02-04T10:20:38;95122.22;;;14.28;42.21
30819;BME280;17546;42.674;23.284;2024-02-04T10:23:03;95150.81;;;14.29;42.48
30819;BME280;17546;42.674;23.284;2024-02-04T10:25:29;95114.34;;;14.38;41.93
30819;BME280;17546;42.674;23.284;2024-02-04T10:27:54;95131.53;;;14.42;42.27
30819;BME280;17546;42.674;23.284;2024-02-04T10:30:21;95131.66;;;13.97;43.30
30819;BME280;17546;42.674;23.284;2024-02-04T10:32:49;95120.31;;;13.89;43.74
30819;BME280;17546;42.674;23.284;2024-02-04T10:35:15;95140.41;;;14.40;43.01
30819;BME280;17546;42.674;23.284;2024-02-04T10:37:44;95080.97;;;14.15;42.66
30819;BME280;17546;42.674;23.284;2024-02-04T10:40:10;95111.94;;;14.64;42.14
30819;BME280;17546;42.674;23.284;2024-02-04T10:42:36;95142.94;;;14.97;41.82
30819;BME280;17546;42.674;23.284;2024-02-04T10:45:08;95133.81;;;14.96;41.57
30819;BME280;17546;42.674;23.284;2024-02-04T10:47:37;95150.13;;;14.86;41.53
30819;BME280;17546;42.674;23.284;2024-02-04T10:50:04;95129.13;;;14.80;41.76
30819;BME280;17546;42.674;23.284;2024-02-04T10:52:36;95134.00;;;14.62;41.93
30819;BME280;17546;42.674;23.284;2024-02-04T10:55:08;95161.66;;;15.07;41.59
30819;BME280;17546;42.674;23.284;2024-02-04T10:57:35;95160.22;;;14.95;41.64
30819;BME280;17546;42.674;23.284;2024-02-04T11:00:02;95134.78;;;15.04;41.31
30819;BME280;17546;42.674;23.284;2024-02-04T11:02:31;95130.91;;;14.77;41.79
30819;BME280;17546;42.674;23.284;2024-02-04T11:05:00;95148.63;;;15.57;40.64
30819;BME280;17546;42.674;23.284;2024-02-04T11:07:31;95158.69;;;14.94;41.56
30819;BME280;17546;42.674;23.284;2024-02-04T11:09:57;95157.22;;;15.23;41.17
30819;BME280;17546;42.674;23.284;2024-02-04T11:12:24;95154.16;;;15.27;41.15
30819;BME280;17546;42.674;23.284;2024-02-04T11:14:52;95139.50;;;15.57;40.22
30819;BME280;17546;42.674;23.284;2024-02-04T11:20:51;95112.91;;;14.73;41.35
30819;BME280;17546;42.674;23.284;2024-02-04T11:26:04;95125.91;;;14.64;42.01
30819;BME280;17546;42.674;23.284;2024-02-04T11:28:30;95134.31;;;15.00;41.52
30819;BME280;17546;42.674;23.284;2024-02-04T11:30:57;95114.03;;;14.47;42.14
30819;BME280;17546;42.674;23.284;2024-02-04T11:33:23;95122.09;;;15.09;41.13
30819;BME280;17546;42.674;23.284;2024-02-04T11:36:06;95117.00;;;15.07;41.36
30819;BME280;17546;42.674;23.284;2024-02-04T11:38:37;95105.44;;;14.92;41.71
30819;BME280;17546;42.674;23.284;2024-02-04T11:41:03;95123.59;;;15.76;40.13
30819;BME280;17546;42.674;23.284;2024-02-04T11:43:32;95117.97;;;14.80;41.79
30819;BME280;17546;42.674;23.284;2024-02-04T11:45:59;95124.59;;;15.48;40.41
30819;BME280;17546;42.674;23.284;2024-02-04T11:48:35;95106.00;;;15.21;41.10
30819;BME280;17546;42.674;23.284;2024-02-04T11:51:03;95110.53;;;15.60;39.93
30819;BME280;17546;42.674;23.284;2024-02-04T11:53:29;95086.97;;;15.55;40.03
30819;BME280;17546;42.674;23.284;2024-02-04T11:55:58;95087.06;;;15.74;39.60
30819;BME280;17546;42.674;23.284;2024-02-04T11:58:26;95075.84;;;15.80;39.73
30819;BME280;17546;42.674;23.284;2024-02-04T12:00:52;95078.50;;;15.61;40.25
30819;BME280;17546;42.674;23.284;2024-02-04T12:03:28;95067.63;;;15.87;39.69
30819;BME280;17546;42.674;23.284;2024-02-04T12:05:55;95045.94;;;15.69;39.65
30819;BME280;17546;42.674;23.284;2024-02-04T12:08:20;95052.97;;;15.81;39.31
30819;BME280;17546;42.674;23.284;2024-02-04T12:10:46;95031.66;;;16.03;38.73
30819;BME280;17546;42.674;23.284;2024-02-04T12:13:13;95070.66;;;16.14;39.22
30819;BME280;17546;42.674;23.284;2024-02-04T12:15:39;95054.59;;;15.71;39.55
30819;BME280;17546;42.674;23.284;2024-02-04T12:18:09;95034.66;;;16.05;38.81
30819;BME280;17546;42.674;23.284;2024-02-04T12:20:36;95009.56;;;15.80;38.74
30819;BME280;17546;42.674;23.284;2024-02-04T12:23:05;95009.66;;;15.94;38.79
30819;BME280;17546;42.674;23.284;2024-02-04T12:25:32;95021.47;;;16.24;38.45
30819;BME280;17546;42.674;23.284;2024-02-04T12:28:02;95023.28;;;15.78;39.16
30819;BME280;17546;42.674;23.284;2024-02-04T12:30:29;95013.41;;;16.21;38.35
30819;BME280;17546;42.674;23.284;2024-02-04T12:32:58;94999.88;;;16.06;38.24
30819;BME280;17546;42.674;23.284;2024-02-04T12:35:24;95033.03;;;16.15;38.50
30819;BME280;17546;42.674;23.284;2024-02-04T12:37:54;95020.59;;;15.91;38.44
30819;BME280;17546;42.674;23.284;2024-02-04T12:40:28;95050.50;;;16.59;37.70
30819;BME280;17546;42.674;23.284;2024-02-04T12:42:58;95043.44;;;16.15;37.90
30819;BME280;17546;42.674;23.284;2024-02-04T12:45:25;95051.78;;;16.58;37.38
30819;BME280;17546;42.674;23.284;2024-02-04T12:47:52;95019.50;;;16.19;37.77
30819;BME280;17546;42.674;23.284;2024-02-04T12:50:18;95049.44;;;16.62;37.26
30819;BME280;17546;42.674;23.284;2024-02-04T12:52:48;95032.66;;;16.24;37.71
30819;BME280;17546;42.674;23.284;2024-02-04T12:55:24;95045.22;;;16.37;37.90
30819;BME280;17546;42.674;23.284;2024-02-04T12:57:50;95064.19;;;16.82;37.06